sensor_id;sensor_type;location;lat;lon;timestamp;pressure;altitude;pressure_sealevel;temperature;humidity
63097;BME280;49185;42.320;23.198;2023-02-17T00:01:13;95935.47;;;-3.06;81.52
63097;BME280;49185;42.320;23.198;2023-02-17T00:03:39;95942.19;;;-3.54;83.02
63097;BME280;49185;42.320;23.198;2023-02-17T00:06:07;95934.06;;;-3.10;82.81
63097;BME280;49185;42.320;23.198;2023-02-17T00:08:33;95929.41;;;-3.07;82.91
63097;BME280;49185;42.320;23.198;2023-02-17T00:10:59;95925.69;;;-3.23;83.17
63097;BME280;49185;42.320;23.198;2023-02-17T00:13:24;95926.38;;;-3.62;84.68
63097;BME280;49185;42.320;23.198;2023-02-17T00:15:50;95926.06;;;-3.78;85.92
63097;BME280;49185;42.320;23.198;2023-02-17T00:18:16;95928.72;;;-3.90;86.61
63097;BME280;49185;42.320;23.198;2023-02-17T00:20:41;95925.69;;;-3.95;87.21
63097;BME280;49185;42.320;23.198;2023-02-17T00:23:07;95915.56;;;-3.98;87.88
63097;BME280;49185;42.320;23.198;2023-02-17T00:25:32;95923.63;;;-4.01;87.62
63097;BME280;49185;42.320;23.198;2023-02-17T00:27:57;95920.31;;;-4.03;88.00
63097;BME280;49185;42.320;23.198;2023-02-17T00:30:23;95916.63;;;-4.01;88.15
63097;BME280;49185;42.320;23.198;2023-02-17T00:32:48;95911.66;;;-3.42;84.99
63097;BME280;49185;42.320;23.198;2023-02-17T00:35:14;95906.66;;;-3.14;83.60
63097;BME280;49185;42.320;23.198;2023-02-17T00:37:39;95915.19;;;-3.53;84.45
63097;BME280;49185;42.320;23.198;2023-02-17T00:40:05;95916.13;;;-3.94;85.37
63097;BME280;49185;42.320;23.198;2023-02-17T00:42:31;95907.00;;;-3.79;86.12
63097;BME280;49185;42.320;23.198;2023-02-17T00:44:59;95908.09;;;-3.82;85.47
63097;BME280;49185;42.320;23.198;2023-02-17T00:47:24;95902.84;;;-3.20;83.88
63097;BME280;49185;42.320;23.198;2023-02-17T00:49:50;95891.47;;;-2.80;81.25
63097;BME280;49185;42.320;23.198;2023-02-17T00:52:15;95894.25;;;-2.81;80.70
63097;BME280;49185;42.320;23.198;2023-02-17T00:54:41;95897.66;;;-3.51;83.15
63097;BME280;49185;42.320;23.198;2023-02-17T00:57:06;95896.09;;;-3.32;83.08
63097;BME280;49185;42.320;23.198;2023-02-17T00:59:31;95896.44;;;-2.87;80.34
63097;BME280;49185;42.320;23.198;2023-02-17T01:01:57;95897.72;;;-3.41;82.16
63097;BME280;49185;42.320;23.198;2023-02-17T01:04:22;95894.94;;;-3.90;85.53
63097;BME280;49185;42.320;23.198;2023-02-17T01:06:48;95901.34;;;-3.94;86.87
63097;BME280;49185;42.320;23.198;2023-02-17T01:09:13;95893.19;;;-3.89;86.90
63097;BME280;49185;42.320;23.198;2023-02-17T01:11:39;95893.72;;;-3.86;87.26
63097;BME280;49185;42.320;23.198;2023-02-17T01:14:05;95888.22;;;-3.92;87.34
63097;BME280;49185;42.320;23.198;2023-02-17T01:16:37;95887.91;;;-3.68;87.09
63097;BME280;49185;42.320;23.198;2023-02-17T01:19:05;95889.66;;;-3.28;84.77
63097;BME280;49185;42.320;23.198;2023-02-17T01:21:31;95888.16;;;-3.31;84.50
63097;BME280;49185;42.320;23.198;2023-02-17T01:23:59;95880.44;;;-3.42;83.67
63097;BME280;49185;42.320;23.198;2023-02-17T01:26:27;95883.72;;;-3.90;84.78
63097;BME280;49185;42.320;23.198;2023-02-17T01:28:53;95889.47;;;-4.17;86.49
63097;BME280;49185;42.320;23.198;2023-02-17T01:31:21;95882.84;;;-4.31;87.16
63097;BME280;49185;42.320;23.198;2023-02-17T01:33:47;95884.16;;;-4.37;87.37
63097;BME280;49185;42.320;23.198;2023-02-17T01:36:16;95889.63;;;-4.40;87.99
63097;BME280;49185;42.320;23.198;2023-02-17T01:38:42;95884.50;;;-4.51;88.20
63097;BME280;49185;42.320;23.198;2023-02-17T01:41:08;95899.88;;;-4.60;88.39
63097;BME280;49185;42.320;23.198;2023-02-17T01:43:34;95898.09;;;-4.38;89.07
63097;BME280;49185;42.320;23.198;2023-02-17T01:46:02;95893.22;;;-4.10;87.11
63097;BME280;49185;42.320;23.198;2023-02-17T01:48:30;95887.75;;;-3.76;86.42
63097;BME280;49185;42.320;23.198;2023-02-17T01:53:34;95889.59;;;-4.19;85.86
63097;BME280;49185;42.320;23.198;2023-02-17T01:56:01;95895.75;;;-4.41;87.08
63097;BME280;49185;42.320;23.198;2023-02-17T01:58:28;95901.72;;;-4.50;87.11
63097;BME280;49185;42.320;23.198;2023-02-17T02:00:57;95894.94;;;-4.42;87.61
63097;BME280;49185;42.320;23.198;2023-02-17T02:03:25;95898.34;;;-4.41;87.33
63097;BME280;49185;42.320;23.198;2023-02-17T02:05:51;95904.53;;;-4.53;87.43
63097;BME280;49185;42.320;23.198;2023-02-17T02:08:17;95905.53;;;-4.66;87.40
63097;BME280;49185;42.320;23.198;2023-02-17T02:10:43;95898.28;;;-4.72;87.98
63097;BME280;49185;42.320;23.198;2023-02-17T02:13:08;95902.06;;;-4.34;87.38
63097;BME280;49185;42.320;23.198;2023-02-17T02:15:41;95901.25;;;-4.55;87.48
63097;BME280;49185;42.320;23.198;2023-02-17T02:24:17;95898.31;;;-3.99;82.68
63097;BME280;49185;42.320;23.198;2023-02-17T02:40:47;95895.00;;;-4.53;86.69
63097;BME280;49185;42.320;23.198;2023-02-17T02:43:16;95893.72;;;-4.59;88.08
63097;BME280;49185;42.320;23.198;2023-02-17T02:45:42;95888.78;;;-4.62;88.24
63097;BME280;49185;42.320;23.198;2023-02-17T02:48:07;95890.81;;;-4.23;87.39
63097;BME280;49185;42.320;23.198;2023-02-17T03:01:46;95884.66;;;-4.22;87.74
63097;BME280;49185;42.320;23.198;2023-02-17T03:04:31;95884.09;;;-4.26;86.70
63097;BME280;49185;42.320;23.198;2023-02-17T03:09:37;95883.28;;;-4.26;87.27
63097;BME280;49185;42.320;23.198;2023-02-17T03:12:03;95883.31;;;-4.38;87.77
63097;BME280;49185;42.320;23.198;2023-02-17T03:14:34;95890.06;;;-4.35;87.47
63097;BME280;49185;42.320;23.198;2023-02-17T03:17:00;95886.13;;;-3.98;87.22
63097;BME280;49185;42.320;23.198;2023-02-17T03:19:27;95887.56;;;-4.15;85.86
63097;BME280;49185;42.320;23.198;2023-02-17T03:22:06;95894.09;;;-4.21;86.09
63097;BME280;49185;42.320;23.198;2023-02-17T03:24:34;95891.31;;;-4.29;86.57
63097;BME280;49185;42.320;23.198;2023-02-17T03:27:00;95899.47;;;-4.34;84.97
63097;BME280;49185;42.320;23.198;2023-02-17T03:29:25;95903.16;;;-4.15;84.13
63097;BME280;49185;42.320;23.198;2023-02-17T03:31:50;95890.22;;;-3.65;82.96
63097;BME280;49185;42.320;23.198;2023-02-17T03:34:16;95900.78;;;-4.49;84.84
63097;BME280;49185;42.320;23.198;2023-02-17T03:36:41;95908.34;;;-4.15;83.44
63097;BME280;49185;42.320;23.198;2023-02-17T03:39:07;95907.56;;;-4.90;85.67
63097;BME280;49185;42.320;23.198;2023-02-17T03:41:32;95912.56;;;-5.10;87.30
63097;BME280;49185;42.320;23.198;2023-02-17T03:43:57;95911.47;;;-5.40;88.43
63097;BME280;49185;42.320;23.198;2023-02-17T03:46:23;95907.13;;;-5.50;89.45
63097;BME280;49185;42.320;23.198;2023-02-17T03:48:48;95910.22;;;-5.13;89.47
63097;BME280;49185;42.320;23.198;2023-02-17T03:51:17;95903.88;;;-5.31;88.61
63097;BME280;49185;42.320;23.198;2023-02-17T03:53:44;95908.06;;;-5.51;89.10
63097;BME280;49185;42.320;23.198;2023-02-17T03:56:10;95924.44;;;-5.62;89.87
63097;BME280;49185;42.320;23.198;2023-02-17T03:58:37;95918.66;;;-5.43;89.68
63097;BME280;49185;42.320;23.198;2023-02-17T04:01:04;95915.34;;;-5.45;89.90
63097;BME280;49185;42.320;23.198;2023-02-17T04:03:29;95912.75;;;-5.45;90.45
63097;BME280;49185;42.320;23.198;2023-02-17T04:05:54;95912.75;;;-5.45;90.12
63097;BME280;49185;42.320;23.198;2023-02-17T04:08:21;95914.53;;;-5.35;90.21
63097;BME280;49185;42.320;23.198;2023-02-17T04:10:53;95903.84;;;-5.09;89.28
63097;BME280;49185;42.320;23.198;2023-02-17T04:13:19;95910.19;;;-4.48;87.89
63097;BME280;49185;42.320;23.198;2023-02-17T04:15:45;95891.88;;;-4.47;86.38
63097;BME280;49185;42.320;23.198;2023-02-17T04:18:10;95901.66;;;-4.60;86.55
63097;BME280;49185;42.320;23.198;2023-02-17T04:20:36;95903.56;;;-4.94;87.66
63097;BME280;49185;42.320;23.198;2023-02-17T04:23:01;95914.72;;;-5.15;88.95
63097;BME280;49185;42.320;23.198;2023-02-17T04:25:26;95904.75;;;-5.31;89.28
63097;BME280;49185;42.320;23.198;2023-02-17T04:27:52;95906.38;;;-5.30;89.87
63097;BME280;49185;42.320;23.198;2023-02-17T04:30:17;95905.09;;;-5.36;89.70
63097;BME280;49185;42.320;23.198;2023-02-17T04:32:43;95897.19;;;-4.90;89.88
63097;BME280;49185;42.320;23.198;2023-02-17T04:35:08;95898.81;;;-4.89;88.41
63097;BME280;49185;42.320;23.198;2023-02-17T04:37:33;95892.75;;;-5.11;88.83
63097;BME280;49185;42.320;23.198;2023-02-17T04:39:59;95907.81;;;-4.93;88.91
63097;BME280;49185;42.320;23.198;2023-02-17T04:42:24;95911.97;;;-5.02;88.75
63097;BME280;49185;42.320;23.198;2023-02-17T04:44:50;95904.78;;;-4.78;86.62
63097;BME280;49185;42.320;23.198;2023-02-17T04:47:15;95910.72;;;-4.54;86.88
63097;BME280;49185;42.320;23.198;2023-02-17T04:49:41;95909.53;;;-3.98;83.23
63097;BME280;49185;42.320;23.198;2023-02-17T04:52:06;95899.44;;;-3.92;82.64
63097;BME280;49185;42.320;23.198;2023-02-17T04:54:31;95900.69;;;-4.17;82.67
63097;BME280;49185;42.320;23.198;2023-02-17T04:56:57;95894.78;;;-4.82;85.15
63097;BME280;49185;42.320;23.198;2023-02-17T04:59:22;95901.03;;;-5.17;88.04
63097;BME280;49185;42.320;23.198;2023-02-17T05:01:48;95905.03;;;-5.13;88.63
63097;BME280;49185;42.320;23.198;2023-02-17T05:04:13;95916.84;;;-5.20;88.64
63097;BME280;49185;42.320;23.198;2023-02-17T05:06:38;95911.03;;;-5.12;89.20
63097;BME280;49185;42.320;23.198;2023-02-17T05:09:04;95912.56;;;-5.10;89.52
63097;BME280;49185;42.320;23.198;2023-02-17T05:11:29;95912.81;;;-5.13;89.71
63097;BME280;49185;42.320;23.198;2023-02-17T05:13:56;95917.50;;;-5.07;89.97
63097;BME280;49185;42.320;23.198;2023-02-17T05:16:22;95917.34;;;-4.62;88.17
63097;BME280;49185;42.320;23.198;2023-02-17T05:18:47;95911.91;;;-4.16;86.71
63097;BME280;49185;42.320;23.198;2023-02-17T05:21:13;95902.34;;;-4.37;85.61
63097;BME280;49185;42.320;23.198;2023-02-17T05:23:38;95916.53;;;-4.94;87.69
63097;BME280;49185;42.320;23.198;2023-02-17T05:26:03;95922.69;;;-5.07;88.93
63097;BME280;49185;42.320;23.198;2023-02-17T05:28:29;95923.19;;;-5.13;89.73
63097;BME280;49185;42.320;23.198;2023-02-17T05:30:54;95914.72;;;-5.15;89.58
63097;BME280;49185;42.320;23.198;2023-02-17T05:33:19;95917.22;;;-4.92;89.21
63097;BME280;49185;42.320;23.198;2023-02-17T05:35:45;95919.09;;;-4.83;88.76
63097;BME280;49185;42.320;23.198;2023-02-17T05:38:10;95924.84;;;-4.47;87.09
63097;BME280;49185;42.320;23.198;2023-02-17T05:40:36;95916.69;;;-4.75;87.84
63097;BME280;49185;42.320;23.198;2023-02-17T05:43:01;95924.84;;;-4.47;87.88
63097;BME280;49185;42.320;23.198;2023-02-17T05:45:27;95932.41;;;-3.92;85.27
63097;BME280;49185;42.320;23.198;2023-02-17T05:47:52;95938.75;;;-3.85;84.08
63097;BME280;49185;42.320;23.198;2023-02-17T05:50:17;95933.94;;;-4.11;84.76
63097;BME280;49185;42.320;23.198;2023-02-17T05:52:43;95933.75;;;-3.67;82.21
63097;BME280;49185;42.320;23.198;2023-02-17T05:55:08;95933.06;;;-4.00;83.54
63097;BME280;49185;42.320;23.198;2023-02-17T05:57:34;95933.25;;;-3.20;81.42
63097;BME280;49185;42.320;23.198;2023-02-17T05:59:59;95925.50;;;-2.81;79.76
63097;BME280;49185;42.320;23.198;2023-02-17T06:02:25;95934.19;;;-3.21;80.60
63097;BME280;49185;42.320;23.198;2023-02-17T06:04:50;95931.59;;;-3.12;80.51
63097;BME280;49185;42.320;23.198;2023-02-17T06:07:16;95937.16;;;-3.36;81.73
63097;BME280;49185;42.320;23.198;2023-02-17T06:09:42;95949.66;;;-3.60;83.29
63097;BME280;49185;42.320;23.198;2023-02-17T06:12:07;95943.00;;;-3.44;83.82
63097;BME280;49185;42.320;23.198;2023-02-17T06:14:32;95950.28;;;-2.87;82.76
63097;BME280;49185;42.320;23.198;2023-02-17T06:16:58;95942.91;;;-2.62;80.65
63097;BME280;49185;42.320;23.198;2023-02-17T06:19:23;95950.84;;;-2.25;80.01
63097;BME280;49185;42.320;23.198;2023-02-17T06:21:49;95948.59;;;-1.91;78.37
63097;BME280;49185;42.320;23.198;2023-02-17T06:24:14;95955.63;;;-0.34;72.29
63097;BME280;49185;42.320;23.198;2023-02-17T06:26:39;95951.41;;;-0.99;73.92
63097;BME280;49185;42.320;23.198;2023-02-17T06:29:05;95948.94;;;0.07;71.98
63097;BME280;49185;42.320;23.198;2023-02-17T06:31:31;95940.81;;;1.30;66.04
63097;BME280;49185;42.320;23.198;2023-02-17T06:33:56;95941.03;;;1.86;64.01
63097;BME280;49185;42.320;23.198;2023-02-17T06:36:22;95936.69;;;2.59;60.54
63097;BME280;49185;42.320;23.198;2023-02-17T06:38:47;95937.56;;;3.53;57.40
63097;BME280;49185;42.320;23.198;2023-02-17T06:41:13;95941.16;;;3.29;57.47
63097;BME280;49185;42.320;23.198;2023-02-17T06:43:38;95949.44;;;3.95;55.89
63097;BME280;49185;42.320;23.198;2023-02-17T06:46:04;95952.94;;;3.10;58.67
63097;BME280;49185;42.320;23.198;2023-02-17T06:48:29;95944.63;;;3.30;58.34
63097;BME280;49185;42.320;23.198;2023-02-17T06:50:55;95938.97;;;3.41;58.25
63097;BME280;49185;42.320;23.198;2023-02-17T06:53:20;95941.91;;;2.67;60.82
63097;BME280;49185;42.320;23.198;2023-02-17T06:55:45;95934.47;;;3.96;56.55
63097;BME280;49185;42.320;23.198;2023-02-17T06:58:11;95941.22;;;3.21;58.45
63097;BME280;49185;42.320;23.198;2023-02-17T07:00:36;95941.31;;;2.49;61.43
63097;BME280;49185;42.320;23.198;2023-02-17T07:03:02;95942.28;;;2.47;62.73
63097;BME280;49185;42.320;23.198;2023-02-17T07:05:27;95931.16;;;2.93;61.21
63097;BME280;49185;42.320;23.198;2023-02-17T07:07:56;95939.72;;;2.87;61.67
63097;BME280;49185;42.320;23.198;2023-02-17T07:10:22;95943.72;;;3.06;61.69
63097;BME280;49185;42.320;23.198;2023-02-17T07:12:47;95939.91;;;3.71;59.77
63097;BME280;49185;42.320;23.198;2023-02-17T07:15:13;95929.84;;;5.47;53.07
63097;BME280;49185;42.320;23.198;2023-02-17T07:17:38;95922.44;;;6.78;49.71
63097;BME280;49185;42.320;23.198;2023-02-17T07:20:07;95919.34;;;7.91;45.71
63097;BME280;49185;42.320;23.198;2023-02-17T07:22:32;95920.47;;;6.59;50.09
63097;BME280;49185;42.320;23.198;2023-02-17T07:24:58;95920.25;;;6.25;50.70
63097;BME280;49185;42.320;23.198;2023-02-17T07:27:23;95921.88;;;6.26;51.19
63097;BME280;49185;42.320;23.198;2023-02-17T07:29:48;95924.81;;;6.38;51.90
63097;BME280;49185;42.320;23.198;2023-02-17T07:32:14;95932.00;;;5.80;53.91
63097;BME280;49185;42.320;23.198;2023-02-17T07:34:39;95930.09;;;5.01;56.84
63097;BME280;49185;42.320;23.198;2023-02-17T07:37:05;95936.50;;;4.91;58.46
63097;BME280;49185;42.320;23.198;2023-02-17T07:39:30;95938.88;;;5.01;59.10
63097;BME280;49185;42.320;23.198;2023-02-17T07:41:55;95931.41;;;5.99;55.98
63097;BME280;49185;42.320;23.198;2023-02-17T07:44:21;95927.34;;;7.36;52.06
63097;BME280;49185;42.320;23.198;2023-02-17T07:46:46;95925.78;;;7.55;51.57
63097;BME280;49185;42.320;23.198;2023-02-17T07:49:12;95919.75;;;8.02;50.63
63097;BME280;49185;42.320;23.198;2023-02-17T07:51:37;95920.00;;;8.53;48.90
63097;BME280;49185;42.320;23.198;2023-02-17T07:54:02;95924.16;;;9.08;46.91
63097;BME280;49185;42.320;23.198;2023-02-17T07:56:29;95916.66;;;9.50;46.31
63097;BME280;49185;42.320;23.198;2023-02-17T07:58:55;95919.44;;;9.10;46.87
63097;BME280;49185;42.320;23.198;2023-02-17T08:01:22;95921.19;;;8.71;47.56
63097;BME280;49185;42.320;23.198;2023-02-17T08:03:49;95922.81;;;7.92;50.10
63097;BME280;49185;42.320;23.198;2023-02-17T08:06:19;95924.47;;;6.48;54.15
63097;BME280;49185;42.320;23.198;2023-02-17T08:08:47;95922.41;;;6.43;54.97
63097;BME280;49185;42.320;23.198;2023-02-17T08:11:15;95923.13;;;5.87;56.59
63097;BME280;49185;42.320;23.198;2023-02-17T08:13:40;95918.75;;;7.96;51.53
63097;BME280;49185;42.320;23.198;2023-02-17T08:16:06;95924.06;;;8.43;50.20
63097;BME280;49185;42.320;23.198;2023-02-17T08:18:31;95918.16;;;8.27;50.02
63097;BME280;49185;42.320;23.198;2023-02-17T08:20:57;95919.78;;;8.68;50.08
63097;BME280;49185;42.320;23.198;2023-02-17T08:23:22;95918.50;;;8.91;49.62
63097;BME280;49185;42.320;23.198;2023-02-17T08:25:47;95915.91;;;8.24;50.36
63097;BME280;49185;42.320;23.198;2023-02-17T08:28:13;95921.28;;;7.43;53.79
63097;BME280;49185;42.320;23.198;2023-02-17T08:30:38;95909.84;;;9.16;48.76
63097;BME280;49185;42.320;23.198;2023-02-17T08:33:05;95906.69;;;9.39;47.48
63097;BME280;49185;42.320;23.198;2023-02-17T08:35:31;95909.47;;;9.50;46.10
63097;BME280;49185;42.320;23.198;2023-02-17T08:37:56;95899.94;;;10.57;43.13
63097;BME280;49185;42.320;23.198;2023-02-17T08:40:22;95909.06;;;10.17;44.24
63097;BME280;49185;42.320;23.198;2023-02-17T08:42:48;95901.59;;;10.07;42.96
63097;BME280;49185;42.320;23.198;2023-02-17T08:45:14;95899.91;;;11.68;40.11
63097;BME280;49185;42.320;23.198;2023-02-17T08:47:40;95893.06;;;12.68;38.16
63097;BME280;49185;42.320;23.198;2023-02-17T08:50:07;95893.94;;;12.26;38.17
63097;BME280;49185;42.320;23.198;2023-02-17T08:52:33;95896.97;;;12.30;38.10
63097;BME280;49185;42.320;23.198;2023-02-17T08:54:59;95897.06;;;12.23;39.14
63097;BME280;49185;42.320;23.198;2023-02-17T08:57:25;95887.44;;;12.10;39.79
63097;BME280;49185;42.320;23.198;2023-02-17T08:59:50;95889.00;;;12.42;38.81
63097;BME280;49185;42.320;23.198;2023-02-17T09:02:16;95891.88;;;12.17;39.37
63097;BME280;49185;42.320;23.198;2023-02-17T09:04:42;95887.13;;;11.09;42.94
63097;BME280;49185;42.320;23.198;2023-02-17T09:07:12;95883.78;;;11.32;42.41
63097;BME280;49185;42.320;23.198;2023-02-17T09:09:39;95879.38;;;11.08;43.89
63097;BME280;49185;42.320;23.198;2023-02-17T09:12:06;95882.25;;;11.06;43.16
63097;BME280;49185;42.320;23.198;2023-02-17T09:14:31;95874.03;;;11.08;41.86
63097;BME280;49185;42.320;23.198;2023-02-17T09:16:57;95875.69;;;12.00;40.60
63097;BME280;49185;42.320;23.198;2023-02-17T09:19:23;95873.97;;;11.14;41.91
63097;BME280;49185;42.320;23.198;2023-02-17T09:21:48;95874.59;;;10.54;43.98
63097;BME280;49185;42.320;23.198;2023-02-17T09:24:15;95873.47;;;10.87;42.44
63097;BME280;49185;42.320;23.198;2023-02-17T09:26:41;95869.09;;;11.42;42.08
63097;BME280;49185;42.320;23.198;2023-02-17T09:29:07;95869.44;;;11.75;40.45
63097;BME280;49185;42.320;23.198;2023-02-17T09:31:34;95868.56;;;10.84;42.49
63097;BME280;49185;42.320;23.198;2023-02-17T09:34:00;95861.16;;;10.68;43.15
63097;BME280;49185;42.320;23.198;2023-02-17T09:36:28;95866.53;;;11.35;41.27
63097;BME280;49185;42.320;23.198;2023-02-17T09:38:56;95854.53;;;10.33;43.67
63097;BME280;49185;42.320;23.198;2023-02-17T09:41:38;95852.22;;;11.17;41.89
63097;BME280;49185;42.320;23.198;2023-02-17T09:44:15;95853.69;;;11.13;41.73
63097;BME280;49185;42.320;23.198;2023-02-17T09:46:49;95852.56;;;11.21;41.52
63097;BME280;49185;42.320;23.198;2023-02-17T09:49:19;95846.75;;;10.94;42.26
63097;BME280;49185;42.320;23.198;2023-02-17T09:57:16;95855.97;;;11.10;42.37
63097;BME280;49185;42.320;23.198;2023-02-17T09:59:51;95846.16;;;12.13;39.62
63097;BME280;49185;42.320;23.198;2023-02-17T10:02:44;95845.66;;;11.92;39.38
63097;BME280;49185;42.320;23.198;2023-02-17T10:05:14;95841.69;;;11.23;40.94
63097;BME280;49185;42.320;23.198;2023-02-17T10:07:46;95840.00;;;11.40;40.41
63097;BME280;49185;42.320;23.198;2023-02-17T10:10:30;95839.66;;;12.44;38.81
63097;BME280;49185;42.320;23.198;2023-02-17T10:13:01;95831.41;;;13.22;36.72
63097;BME280;49185;42.320;23.198;2023-02-17T10:15:34;95832.00;;;12.71;37.64
63097;BME280;49185;42.320;23.198;2023-02-17T10:18:07;95823.66;;;11.97;38.35
63097;BME280;49185;42.320;23.198;2023-02-17T10:20:51;95821.78;;;12.80;36.99
63097;BME280;49185;42.320;23.198;2023-02-17T10:23:24;95812.03;;;13.72;35.33
63097;BME280;49185;42.320;23.198;2023-02-17T10:34:12;95800.88;;;12.53;36.67
63097;BME280;49185;42.320;23.198;2023-02-17T10:39:15;95786.97;;;12.63;34.86
63097;BME280;49185;42.320;23.198;2023-02-17T10:41:46;95790.63;;;13.72;35.00
63097;BME280;49185;42.320;23.198;2023-02-17T10:44:17;95785.78;;;14.03;33.84
63097;BME280;49185;42.320;23.198;2023-02-17T10:46:44;95776.72;;;13.41;34.90
63097;BME280;49185;42.320;23.198;2023-02-17T10:49:20;95770.22;;;13.66;33.88
63097;BME280;49185;42.320;23.198;2023-02-17T10:51:47;95772.66;;;13.67;33.46
63097;BME280;49185;42.320;23.198;2023-02-17T10:54:25;95766.44;;;14.35;32.76
63097;BME280;49185;42.320;23.198;2023-02-17T10:56:54;95763.13;;;15.92;29.50
63097;BME280;49185;42.320;23.198;2023-02-17T10:59:26;95758.97;;;15.74;30.41
63097;BME280;49185;42.320;23.198;2023-02-17T11:01:58;95756.50;;;15.18;30.97
63097;BME280;49185;42.320;23.198;2023-02-17T11:04:43;95744.50;;;15.81;30.75
63097;BME280;49185;42.320;23.198;2023-02-17T11:07:14;95742.56;;;16.51;26.75
63097;BME280;49185;42.320;23.198;2023-02-17T11:09:50;95746.09;;;17.20;25.63
63097;BME280;49185;42.320;23.198;2023-02-17T11:12:49;95737.25;;;17.45;24.96
63097;BME280;49185;42.320;23.198;2023-02-17T11:15:35;95735.63;;;16.60;24.37
63097;BME280;49185;42.320;23.198;2023-02-17T11:18:09;95730.66;;;16.37;23.98
63097;BME280;49185;42.320;23.198;2023-02-17T11:20:36;95735.56;;;17.08;22.98
63097;BME280;49185;42.320;23.198;2023-02-17T11:25:39;95718.97;;;17.47;21.94
63097;BME280;49185;42.320;23.198;2023-02-17T11:28:11;95718.88;;;17.06;22.41
63097;BME280;49185;42.320;23.198;2023-02-17T11:30:38;95720.50;;;16.44;22.94
63097;BME280;49185;42.320;23.198;2023-02-17T11:33:14;95708.19;;;16.53;23.88
63097;BME280;49185;42.320;23.198;2023-02-17T11:38:20;95710.63;;;16.07;23.77
63097;BME280;49185;42.320;23.198;2023-02-17T11:41:03;95704.56;;;16.85;23.24
63097;BME280;49185;42.320;23.198;2023-02-17T11:43:30;95699.88;;;17.74;21.46
63097;BME280;49185;42.320;23.198;2023-02-17T11:51:27;95704.81;;;16.20;22.01
63097;BME280;49185;42.320;23.198;2023-02-17T11:54:25;95694.75;;;16.53;23.23
63097;BME280;49185;42.320;23.198;2023-02-17T12:17:11;95669.97;;;18.17;21.16
63097;BME280;49185;42.320;23.198;2023-02-17T12:22:25;95661.56;;;18.29;20.66
63097;BME280;49185;42.320;23.198;2023-02-17T12:31:03;95655.19;;;17.78;21.12
63097;BME280;49185;42.320;23.198;2023-02-17T12:36:15;95650.81;;;16.85;21.36
63097;BME280;49185;42.320;23.198;2023-02-17T12:38:48;95647.34;;;16.21;22.45
63097;BME280;49185;42.320;23.198;2023-02-17T12:41:25;95648.78;;;15.91;22.77
63097;BME280;49185;42.320;23.198;2023-02-17T12:44:06;95647.28;;;15.36;22.91
63097;BME280;49185;42.320;23.198;2023-02-17T12:46:38;95648.75;;;15.16;23.65
63097;BME280;49185;42.320;23.198;2023-02-17T12:49:29;95642.03;;;15.14;23.83
63097;BME280;49185;42.320;23.198;2023-02-17T12:52:15;95635.84;;;15.13;23.95
63097;BME280;49185;42.320;23.198;2023-02-17T12:54:53;95632.66;;;14.62;24.60
63097;BME280;49185;42.320;23.198;2023-02-17T13:00:33;95636.41;;;14.88;25.09
63097;BME280;49185;42.320;23.198;2023-02-17T13:03:02;95634.56;;;14.44;26.51
63097;BME280;49185;42.320;23.198;2023-02-17T13:05:50;95619.41;;;14.50;25.24
63097;BME280;49185;42.320;23.198;2023-02-17T13:08:28;95622.69;;;14.35;26.02
63097;BME280;49185;42.320;23.198;2023-02-17T13:11:02;95612.59;;;15.24;26.66
63097;BME280;49185;42.320;23.198;2023-02-17T13:13:30;95622.72;;;14.85;25.80
63097;BME280;49185;42.320;23.198;2023-02-17T13:16:10;95620.06;;;14.40;26.60
63097;BME280;49185;42.320;23.198;2023-02-17T13:18:42;95612.91;;;14.46;26.80
63097;BME280;49185;42.320;23.198;2023-02-17T13:28:49;95611.31;;;14.23;26.63
63097;BME280;49185;42.320;23.198;2023-02-17T13:31:18;95607.19;;;14.59;26.91
63097;BME280;49185;42.320;23.198;2023-02-17T13:33:50;95607.06;;;14.49;26.34
63097;BME280;49185;42.320;23.198;2023-02-17T13:36:32;95599.56;;;14.73;26.04
63097;BME280;49185;42.320;23.198;2023-02-17T13:39:00;95602.31;;;14.78;25.60
63097;BME280;49185;42.320;23.198;2023-02-17T13:41:28;95595.50;;;13.99;26.14
63097;BME280;49185;42.320;23.198;2023-02-17T13:43:57;95602.94;;;13.75;26.44
63097;BME280;49185;42.320;23.198;2023-02-17T13:46:25;95593.69;;;13.83;27.21
63097;BME280;49185;42.320;23.198;2023-02-17T13:49:21;95598.13;;;13.77;26.56
63097;BME280;49185;42.320;23.198;2023-02-17T13:51:48;95603.25;;;13.79;26.62
63097;BME280;49185;42.320;23.198;2023-02-17T13:54:14;95595.59;;;13.48;27.98
63097;BME280;49185;42.320;23.198;2023-02-17T13:56:49;95597.03;;;13.56;28.54
63097;BME280;49185;42.320;23.198;2023-02-17T13:59:16;95602.84;;;14.09;28.03
63097;BME280;49185;42.320;23.198;2023-02-17T14:01:43;95601.50;;;13.67;29.18
63097;BME280;49185;42.320;23.198;2023-02-17T14:04:30;95598.53;;;13.86;27.73
63097;BME280;49185;42.320;23.198;2023-02-17T14:06:57;95602.81;;;13.48;28.99
63097;BME280;49185;42.320;23.198;2023-02-17T14:09:30;95604.38;;;13.44;27.53
63097;BME280;49185;42.320;23.198;2023-02-17T14:11:57;95600.63;;;13.45;28.12
63097;BME280;49185;42.320;23.198;2023-02-17T14:14:28;95604.13;;;13.84;28.28
63097;BME280;49185;42.320;23.198;2023-02-17T14:16:57;95596.84;;;13.41;28.31
63097;BME280;49185;42.320;23.198;2023-02-17T14:19:23;95608.69;;;14.06;27.12
63097;BME280;49185;42.320;23.198;2023-02-17T14:24:32;95593.00;;;13.20;29.06
63097;BME280;49185;42.320;23.198;2023-02-17T14:27:09;95596.41;;;13.49;28.57
63097;BME280;49185;42.320;23.198;2023-02-17T14:29:46;95604.94;;;14.07;27.66
63097;BME280;49185;42.320;23.198;2023-02-17T14:32:36;95610.06;;;13.86;28.28
63097;BME280;49185;42.320;23.198;2023-02-17T14:37:36;95606.22;;;13.26;29.37
63097;BME280;49185;42.320;23.198;2023-02-17T14:40:03;95605.34;;;13.38;29.56
63097;BME280;49185;42.320;23.198;2023-02-17T14:42:30;95606.03;;;12.99;29.19
63097;BME280;49185;42.320;23.198;2023-02-17T14:44:56;95608.38;;;12.96;29.14
63097;BME280;49185;42.320;23.198;2023-02-17T14:47:21;95613.94;;;12.94;29.32
63097;BME280;49185;42.320;23.198;2023-02-17T14:49:47;95617.47;;;13.45;29.10